sensor_id;sensor_type;location;lat;lon;timestamp;temperature;humidity
39503;DHT22;26970;49.900;10.774;2023-01-06T00:01:25;7.60;99.90
39503;DHT22;26970;49.900;10.774;2023-01-06T00:03:52;7.60;99.90
39503;DHT22;26970;49.900;10.774;2023-01-06T00:06:20;7.60;99.90
39503;DHT22;26970;49.900;10.774;2023-01-06T00:08:54;7.70;99.90
39503;DHT22;26970;49.900;10.774;2023-01-06T00:11:20;7.60;99.90
39503;DHT22;26970;49.900;10.774;2023-01-06T00:13:46;7.70;99.90
39503;DHT22;26970;49.900;10.774;2023-01-06T00:16:15;7.70;99.90
39503;DHT22;26970;49.900;10.774;2023-01-06T00:18:41;7.70;99.90
39503;DHT22;26970;49.900;10.774;2023-01-06T00:21:08;7.70;99.90
39503;DHT22;26970;49.900;10.774;2023-01-06T00:23:35;7.70;99.90
39503;DHT22;26970;49.900;10.774;2023-01-06T00:26:01;7.70;99.90
39503;DHT22;26970;49.900;10.774;2023-01-06T00:28:27;7.80;99.90
39503;DHT22;26970;49.900;10.774;2023-01-06T00:30:53;7.70;99.90
39503;DHT22;26970;49.900;10.774;2023-01-06T00:33:18;7.80;99.90
39503;DHT22;26970;49.900;10.774;2023-01-06T00:35:44;7.80;99.90
39503;DHT22;26970;49.900;10.774;2023-01-06T00:38:10;7.80;99.90
39503;DHT22;26970;49.900;10.774;2023-01-06T00:40:36;7.70;99.90
39503;DHT22;26970;49.900;10.774;2023-01-06T00:43:02;7.70;99.90
39503;DHT22;26970;49.900;10.774;2023-01-06T00:45:28;7.70;99.90
39503;DHT22;26970;49.900;10.774;2023-01-06T00:47:53;7.70;99.90
39503;DHT22;26970;49.900;10.774;2023-01-06T00:50:19;7.70;99.90
39503;DHT22;26970;49.900;10.774;2023-01-06T00:52:47;7.80;99.90
39503;DHT22;26970;49.900;10.774;2023-01-06T00:55:12;7.80;99.90
39503;DHT22;26970;49.900;10.774;2023-01-06T00:57:38;7.80;99.90
39503;DHT22;26970;49.900;10.774;2023-01-06T01:00:05;7.80;99.90
39503;DHT22;26970;49.900;10.774;2023-01-06T01:02:31;7.90;99.90
39503;DHT22;26970;49.900;10.774;2023-01-06T01:04:56;7.90;99.90
39503;DHT22;26970;49.900;10.774;2023-01-06T01:07:22;7.90;99.90
39503;DHT22;26970;49.900;10.774;2023-01-06T01:09:48;7.90;99.90
39503;DHT22;26970;49.900;10.774;2023-01-06T01:12:13;7.90;99.90
39503;DHT22;26970;49.900;10.774;2023-01-06T01:14:49;7.90;99.90
39503;DHT22;26970;49.900;10.774;2023-01-06T01:17:30;7.90;99.90
39503;DHT22;26970;49.900;10.774;2023-01-06T01:19:56;7.90;99.90
39503;DHT22;26970;49.900;10.774;2023-01-06T01:22:23;7.90;99.90
39503;DHT22;26970;49.900;10.774;2023-01-06T01:24:49;7.90;99.90
39503;DHT22;26970;49.900;10.774;2023-01-06T01:27:16;7.90;99.90
39503;DHT22;26970;49.900;10.774;2023-01-06T01:29:42;7.90;99.90
39503;DHT22;26970;49.900;10.774;2023-01-06T01:32:07;8.00;99.90
39503;DHT22;26970;49.900;10.774;2023-01-06T01:34:34;8.00;99.90
39503;DHT22;26970;49.900;10.774;2023-01-06T01:36:59;8.00;99.90
39503;DHT22;26970;49.900;10.774;2023-01-06T01:39:26;8.00;99.90
39503;DHT22;26970;49.900;10.774;2023-01-06T01:41:53;8.00;99.90
39503;DHT22;26970;49.900;10.774;2023-01-06T01:47:29;8.10;99.90
39503;DHT22;26970;49.900;10.774;2023-01-06T01:50:00;8.20;99.90
39503;DHT22;26970;49.900;10.774;2023-01-06T01:52:28;8.20;99.90
39503;DHT22;26970;49.900;10.774;2023-01-06T01:54:54;8.30;99.90
39503;DHT22;26970;49.900;10.774;2023-01-06T01:57:27;8.30;99.90
39503;DHT22;26970;49.900;10.774;2023-01-06T01:59:54;8.40;99.90
39503;DHT22;26970;49.900;10.774;2023-01-06T02:02:20;8.40;99.90
39503;DHT22;26970;49.900;10.774;2023-01-06T02:04:50;8.40;99.90
39503;DHT22;26970;49.900;10.774;2023-01-06T02:07:17;8.40;99.90
39503;DHT22;26970;49.900;10.774;2023-01-06T02:12:29;8.40;99.90
39503;DHT22;26970;49.900;10.774;2023-01-06T02:14:55;8.50;99.90
39503;DHT22;26970;49.900;10.774;2023-01-06T02:20:34;8.50;99.90
39503;DHT22;26970;49.900;10.774;2023-01-06T02:32:15;8.50;99.90
39503;DHT22;26970;49.900;10.774;2023-01-06T02:37:34;8.50;99.90
39503;DHT22;26970;49.900;10.774;2023-01-06T02:46:09;8.60;99.90
39503;DHT22;26970;49.900;10.774;2023-01-06T02:48:52;8.70;99.90
39503;DHT22;26970;49.900;10.774;2023-01-06T02:51:45;8.70;99.90
39503;DHT22;26970;49.900;10.774;2023-01-06T02:57:49;8.70;99.90
39503;DHT22;26970;49.900;10.774;2023-01-06T03:02:49;8.80;99.90
39503;DHT22;26970;49.900;10.774;2023-01-06T03:05:18;8.80;99.90
39503;DHT22;26970;49.900;10.774;2023-01-06T03:07:45;8.80;99.90
39503;DHT22;26970;49.900;10.774;2023-01-06T03:10:15;8.80;99.90
39503;DHT22;26970;49.900;10.774;2023-01-06T03:12:53;8.80;99.90
39503;DHT22;26970;49.900;10.774;2023-01-06T03:15:22;8.80;99.90
39503;DHT22;26970;49.900;10.774;2023-01-06T03:17:48;8.80;99.90
39503;DHT22;26970;49.900;10.774;2023-01-06T03:20:14;8.90;99.90
39503;DHT22;26970;49.900;10.774;2023-01-06T03:22:40;8.90;99.90
39503;DHT22;26970;49.900;10.774;2023-01-06T03:25:06;8.90;99.90
39503;DHT22;26970;49.900;10.774;2023-01-06T03:27:33;8.90;99.90
39503;DHT22;26970;49.900;10.774;2023-01-06T03:29:59;8.90;99.90
39503;DHT22;26970;49.900;10.774;2023-01-06T03:32:57;8.90;99.90
39503;DHT22;26970;49.900;10.774;2023-01-06T03:35:46;8.90;99.90
39503;DHT22;26970;49.900;10.774;2023-01-06T03:39:18;8.90;99.90
39503;DHT22;26970;49.900;10.774;2023-01-06T03:41:42;8.90;99.90
39503;DHT22;26970;49.900;10.774;2023-01-06T03:44:52;8.90;99.90
39503;DHT22;26970;49.900;10.774;2023-01-06T03:47:31;8.90;99.90
39503;DHT22;26970;49.900;10.774;2023-01-06T03:50:35;8.90;99.90
39503;DHT22;26970;49.900;10.774;2023-01-06T03:53:22;8.90;99.90
39503;DHT22;26970;49.900;10.774;2023-01-06T03:56:04;8.90;99.90
39503;DHT22;26970;49.900;10.774;2023-01-06T03:58:30;8.90;99.90
39503;DHT22;26970;49.900;10.774;2023-01-06T04:00:56;8.90;99.90
39503;DHT22;26970;49.900;10.774;2023-01-06T04:03:23;9.00;99.90
39503;DHT22;26970;49.900;10.774;2023-01-06T04:05:51;8.90;99.90
39503;DHT22;26970;49.900;10.774;2023-01-06T04:08:16;9.00;99.90
39503;DHT22;26970;49.900;10.774;2023-01-06T04:10:42;9.00;99.90
39503;DHT22;26970;49.900;10.774;2023-01-06T04:13:07;9.00;99.90
39503;DHT22;26970;49.900;10.774;2023-01-06T04:15:33;8.90;99.90
39503;DHT22;26970;49.900;10.774;2023-01-06T04:17:59;8.90;99.90
39503;DHT22;26970;49.900;10.774;2023-01-06T04:20:27;8.90;99.90
39503;DHT22;26970;49.900;10.774;2023-01-06T04:22:54;8.90;99.90
39503;DHT22;26970;49.900;10.774;2023-01-06T04:25:20;8.90;99.90
39503;DHT22;26970;49.900;10.774;2023-01-06T04:27:45;8.80;99.90
39503;DHT22;26970;49.900;10.774;2023-01-06T04:30:11;8.80;99.90
39503;DHT22;26970;49.900;10.774;2023-01-06T04:32:37;8.80;99.90
39503;DHT22;26970;49.900;10.774;2023-01-06T04:35:03;8.80;99.90
39503;DHT22;26970;49.900;10.774;2023-01-06T04:37:28;8.80;99.90
39503;DHT22;26970;49.900;10.774;2023-01-06T04:39:54;8.80;99.90
39503;DHT22;26970;49.900;10.774;2023-01-06T04:42:19;8.80;99.90
39503;DHT22;26970;49.900;10.774;2023-01-06T04:44:45;8.80;99.90
39503;DHT22;26970;49.900;10.774;2023-01-06T04:47:11;8.80;99.90
39503;DHT22;26970;49.900;10.774;2023-01-06T04:49:36;8.80;99.90
39503;DHT22;26970;49.900;10.774;2023-01-06T04:52:02;8.80;99.90
39503;DHT22;26970;49.900;10.774;2023-01-06T04:54:28;8.70;99.90
39503;DHT22;26970;49.900;10.774;2023-01-06T04:56:53;8.70;99.90
39503;DHT22;26970;49.900;10.774;2023-01-06T04:59:19;8.70;99.90
39503;DHT22;26970;49.900;10.774;2023-01-06T05:01:44;8.70;99.90
39503;DHT22;26970;49.900;10.774;2023-01-06T05:04:10;8.70;99.90
39503;DHT22;26970;49.900;10.774;2023-01-06T05:06:35;8.70;99.90
39503;DHT22;26970;49.900;10.774;2023-01-06T05:09:04;8.70;99.90
39503;DHT22;26970;49.900;10.774;2023-01-06T05:11:29;8.80;99.90
39503;DHT22;26970;49.900;10.774;2023-01-06T05:13:55;8.80;99.90
39503;DHT22;26970;49.900;10.774;2023-01-06T05:16:31;8.80;99.90
39503;DHT22;26970;49.900;10.774;2023-01-06T05:18:57;8.70;99.90
39503;DHT22;26970;49.900;10.774;2023-01-06T05:21:24;8.70;99.90
39503;DHT22;26970;49.900;10.774;2023-01-06T05:23:50;8.80;99.90
39503;DHT22;26970;49.900;10.774;2023-01-06T05:26:19;8.80;99.90
39503;DHT22;26970;49.900;10.774;2023-01-06T05:28:45;8.80;99.90
39503;DHT22;26970;49.900;10.774;2023-01-06T05:31:11;8.80;99.90
39503;DHT22;26970;49.900;10.774;2023-01-06T05:33:37;8.80;99.90
39503;DHT22;26970;49.900;10.774;2023-01-06T05:36:08;8.70;99.90
39503;DHT22;26970;49.900;10.774;2023-01-06T05:38:34;8.80;99.90
39503;DHT22;26970;49.900;10.774;2023-01-06T05:40:59;8.80;99.90
39503;DHT22;26970;49.900;10.774;2023-01-06T05:43:26;8.80;99.90
39503;DHT22;26970;49.900;10.774;2023-01-06T05:45:53;8.80;99.90
39503;DHT22;26970;49.900;10.774;2023-01-06T05:48:19;8.80;99.90
39503;DHT22;26970;49.900;10.774;2023-01-06T05:50:45;8.70;99.90
39503;DHT22;26970;49.900;10.774;2023-01-06T05:53:11;8.80;99.90
39503;DHT22;26970;49.900;10.774;2023-01-06T05:55:36;8.80;99.90
39503;DHT22;26970;49.900;10.774;2023-01-06T05:58:02;8.70;99.90
39503;DHT22;26970;49.900;10.774;2023-01-06T06:00:28;8.80;99.90
39503;DHT22;26970;49.900;10.774;2023-01-06T06:02:54;8.80;99.90
39503;DHT22;26970;49.900;10.774;2023-01-06T06:05:20;8.80;99.90
39503;DHT22;26970;49.900;10.774;2023-01-06T06:07:54;8.80;99.90
39503;DHT22;26970;49.900;10.774;2023-01-06T06:10:21;8.80;99.90
39503;DHT22;26970;49.900;10.774;2023-01-06T06:12:47;8.80;99.90
39503;DHT22;26970;49.900;10.774;2023-01-06T06:15:12;8.90;99.90
39503;DHT22;26970;49.900;10.774;2023-01-06T06:17:38;8.90;99.90
39503;DHT22;26970;49.900;10.774;2023-01-06T06:20:04;8.90;99.90
39503;DHT22;26970;49.900;10.774;2023-01-06T06:22:30;8.90;99.90
39503;DHT22;26970;49.900;10.774;2023-01-06T06:24:55;8.90;99.90
39503;DHT22;26970;49.900;10.774;2023-01-06T06:27:21;8.90;99.90
39503;DHT22;26970;49.900;10.774;2023-01-06T06:29:46;8.90;99.90
39503;DHT22;26970;49.900;10.774;2023-01-06T06:32:12;9.00;99.90
39503;DHT22;26970;49.900;10.774;2023-01-06T06:34:37;8.90;99.90
39503;DHT22;26970;49.900;10.774;2023-01-06T06:37:03;8.90;99.90
39503;DHT22;26970;49.900;10.774;2023-01-06T06:39:28;8.90;99.90
39503;DHT22;26970;49.900;10.774;2023-01-06T06:41:54;9.00;99.90
39503;DHT22;26970;49.900;10.774;2023-01-06T06:44:19;8.90;99.90
39503;DHT22;26970;49.900;10.774;2023-01-06T06:46:45;8.90;99.90
39503;DHT22;26970;49.900;10.774;2023-01-06T06:49:11;9.00;99.90
39503;DHT22;26970;49.900;10.774;2023-01-06T06:51:36;9.00;99.90
39503;DHT22;26970;49.900;10.774;2023-01-06T06:54:03;9.00;99.90
39503;DHT22;26970;49.900;10.774;2023-01-06T06:56:28;9.00;99.90
39503;DHT22;26970;49.900;10.774;2023-01-06T06:58:54;9.00;99.90
39503;DHT22;26970;49.900;10.774;2023-01-06T07:01:20;8.90;99.90
39503;DHT22;26970;49.900;10.774;2023-01-06T07:03:46;9.00;99.90
39503;DHT22;26970;49.900;10.774;2023-01-06T07:06:19;9.00;99.90
39503;DHT22;26970;49.900;10.774;2023-01-06T07:08:46;9.00;99.90
39503;DHT22;26970;49.900;10.774;2023-01-06T07:11:12;9.00;99.90
39503;DHT22;26970;49.900;10.774;2023-01-06T07:13:37;9.10;99.90
39503;DHT22;26970;49.900;10.774;2023-01-06T07:16:03;9.00;99.90
39503;DHT22;26970;49.900;10.774;2023-01-06T07:18:29;9.00;99.90
39503;DHT22;26970;49.900;10.774;2023-01-06T07:20:54;9.00;99.90
39503;DHT22;26970;49.900;10.774;2023-01-06T07:23:21;9.00;99.90
39503;DHT22;26970;49.900;10.774;2023-01-06T07:25:55;9.00;99.90
39503;DHT22;26970;49.900;10.774;2023-01-06T07:28:21;9.00;99.90
39503;DHT22;26970;49.900;10.774;2023-01-06T07:30:47;9.10;99.90
39503;DHT22;26970;49.900;10.774;2023-01-06T07:33:13;9.00;99.90
39503;DHT22;26970;49.900;10.774;2023-01-06T07:35:39;9.00;99.90
39503;DHT22;26970;49.900;10.774;2023-01-06T07:38:05;9.00;99.90
39503;DHT22;26970;49.900;10.774;2023-01-06T07:40:31;9.00;99.90
39503;DHT22;26970;49.900;10.774;2023-01-06T07:42:57;9.00;99.90
39503;DHT22;26970;49.900;10.774;2023-01-06T07:45:22;9.00;99.90
39503;DHT22;26970;49.900;10.774;2023-01-06T07:47:48;9.00;99.90
39503;DHT22;26970;49.900;10.774;2023-01-06T07:50:14;9.00;99.90
39503;DHT22;26970;49.900;10.774;2023-01-06T07:52:39;9.00;99.90
39503;DHT22;26970;49.900;10.774;2023-01-06T07:55:05;9.10;99.90
39503;DHT22;26970;49.900;10.774;2023-01-06T07:57:31;9.00;99.90
39503;DHT22;26970;49.900;10.774;2023-01-06T07:59:56;9.10;99.90
39503;DHT22;26970;49.900;10.774;2023-01-06T08:02:22;9.10;99.90
39503;DHT22;26970;49.900;10.774;2023-01-06T08:04:48;9.10;99.90
39503;DHT22;26970;49.900;10.774;2023-01-06T08:07:14;9.00;99.90
39503;DHT22;26970;49.900;10.774;2023-01-06T08:09:41;9.10;99.90
39503;DHT22;26970;49.900;10.774;2023-01-06T08:12:07;9.10;99.90
39503;DHT22;26970;49.900;10.774;2023-01-06T08:14:32;9.10;99.90
39503;DHT22;26970;49.900;10.774;2023-01-06T08:16:58;9.10;99.90
39503;DHT22;26970;49.900;10.774;2023-01-06T08:19:24;9.00;99.90
39503;DHT22;26970;49.900;10.774;2023-01-06T08:21:49;9.10;99.90
39503;DHT22;26970;49.900;10.774;2023-01-06T08:24:15;9.10;99.90
39503;DHT22;26970;49.900;10.774;2023-01-06T08:26:40;9.10;99.90
39503;DHT22;26970;49.900;10.774;2023-01-06T08:29:06;9.10;99.90
39503;DHT22;26970;49.900;10.774;2023-01-06T08:31:32;9.20;99.90
39503;DHT22;26970;49.900;10.774;2023-01-06T08:33:58;9.20;99.90
39503;DHT22;26970;49.900;10.774;2023-01-06T08:36:24;9.20;99.90
39503;DHT22;26970;49.900;10.774;2023-01-06T08:38:50;9.20;99.90
39503;DHT22;26970;49.900;10.774;2023-01-06T08:41:16;9.20;99.90
39503;DHT22;26970;49.900;10.774;2023-01-06T08:43:43;9.30;99.90
39503;DHT22;26970;49.900;10.774;2023-01-06T08:46:15;9.30;99.90
39503;DHT22;26970;49.900;10.774;2023-01-06T08:48:42;9.30;99.90
39503;DHT22;26970;49.900;10.774;2023-01-06T08:51:11;9.30;99.90
39503;DHT22;26970;49.900;10.774;2023-01-06T08:53:38;9.30;99.90
39503;DHT22;26970;49.900;10.774;2023-01-06T08:56:04;9.30;99.90
39503;DHT22;26970;49.900;10.774;2023-01-06T08:58:29;9.20;99.90
39503;DHT22;26970;49.900;10.774;2023-01-06T09:00:55;9.20;99.90
39503;DHT22;26970;49.900;10.774;2023-01-06T09:03:21;9.30;99.90
39503;DHT22;26970;49.900;10.774;2023-01-06T09:05:54;9.30;99.90
39503;DHT22;26970;49.900;10.774;2023-01-06T09:08:20;9.30;99.90
39503;DHT22;26970;49.900;10.774;2023-01-06T09:10:45;9.30;99.90
39503;DHT22;26970;49.900;10.774;2023-01-06T09:13:11;9.40;99.90
39503;DHT22;26970;49.900;10.774;2023-01-06T09:15:40;9.40;99.90
39503;DHT22;26970;49.900;10.774;2023-01-06T09:18:06;9.40;99.90
39503;DHT22;26970;49.900;10.774;2023-01-06T09:20:34;9.40;99.90
39503;DHT22;26970;49.900;10.774;2023-01-06T09:22:59;9.40;99.90
39503;DHT22;26970;49.900;10.774;2023-01-06T09:25:25;9.40;99.90
39503;DHT22;26970;49.900;10.774;2023-01-06T09:27:51;9.40;99.90
39503;DHT22;26970;49.900;10.774;2023-01-06T09:30:16;9.40;99.90
39503;DHT22;26970;49.900;10.774;2023-01-06T09:32:42;9.40;99.90
39503;DHT22;26970;49.900;10.774;2023-01-06T09:35:08;9.30;99.90
39503;DHT22;26970;49.900;10.774;2023-01-06T09:37:34;9.30;99.90
39503;DHT22;26970;49.900;10.774;2023-01-06T09:40:00;9.30;99.90
39503;DHT22;26970;49.900;10.774;2023-01-06T09:42:51;9.30;99.90
39503;DHT22;26970;49.900;10.774;2023-01-06T09:45:25;9.30;99.90
39503;DHT22;26970;49.900;10.774;2023-01-06T09:47:56;9.30;99.90
39503;DHT22;26970;49.900;10.774;2023-01-06T09:50:39;9.20;99.90
39503;DHT22;26970;49.900;10.774;2023-01-06T09:56:11;9.30;99.90
39503;DHT22;26970;49.900;10.774;2023-01-06T10:01:39;9.30;99.90
39503;DHT22;26970;49.900;10.774;2023-01-06T10:04:05;9.30;99.90
39503;DHT22;26970;49.900;10.774;2023-01-06T10:06:36;9.30;99.90
39503;DHT22;26970;49.900;10.774;2023-01-06T10:09:27;9.30;99.90
39503;DHT22;26970;49.900;10.774;2023-01-06T10:17:36;9.30;99.90
39503;DHT22;26970;49.900;10.774;2023-01-06T10:25:48;9.40;99.90
39503;DHT22;26970;49.900;10.774;2023-01-06T10:28:27;9.40;99.90
39503;DHT22;26970;49.900;10.774;2023-01-06T10:30:57;9.30;99.90
39503;DHT22;26970;49.900;10.774;2023-01-06T10:33:30;9.30;99.90
39503;DHT22;26970;49.900;10.774;2023-01-06T10:35:58;9.30;99.90
39503;DHT22;26970;49.900;10.774;2023-01-06T10:38:30;9.30;99.90
39503;DHT22;26970;49.900;10.774;2023-01-06T10:41:07;9.30;99.90
39503;DHT22;26970;49.900;10.774;2023-01-06T10:43:35;9.30;99.90
39503;DHT22;26970;49.900;10.774;2023-01-06T10:46:00;9.30;99.90
39503;DHT22;26970;49.900;10.774;2023-01-06T10:48:28;9.20;99.90
39503;DHT22;26970;49.900;10.774;2023-01-06T10:50:55;9.10;99.90
39503;DHT22;26970;49.900;10.774;2023-01-06T10:53:21;9.10;99.90
39503;DHT22;26970;49.900;10.774;2023-01-06T10:55:53;9.00;99.90
39503;DHT22;26970;49.900;10.774;2023-01-06T10:58:54;8.90;99.90
39503;DHT22;26970;49.900;10.774;2023-01-06T11:01:27;8.70;99.90
39503;DHT22;26970;49.900;10.774;2023-01-06T11:04:05;8.60;99.90
39503;DHT22;26970;49.900;10.774;2023-01-06T11:06:39;8.60;99.90
39503;DHT22;26970;49.900;10.774;2023-01-06T11:09:20;8.50;99.90
39503;DHT22;26970;49.900;10.774;2023-01-06T11:11:47;8.50;99.90
39503;DHT22;26970;49.900;10.774;2023-01-06T11:14:16;8.40;99.90
39503;DHT22;26970;49.900;10.774;2023-01-06T11:16:52;8.40;99.90
39503;DHT22;26970;49.900;10.774;2023-01-06T11:19:30;8.40;99.90
39503;DHT22;26970;49.900;10.774;2023-01-06T11:21:57;8.40;99.90
39503;DHT22;26970;49.900;10.774;2023-01-06T11:24:25;8.40;99.90
39503;DHT22;26970;49.900;10.774;2023-01-06T11:29:30;8.40;99.90
39503;DHT22;26970;49.900;10.774;2023-01-06T11:32:00;8.40;99.90
39503;DHT22;26970;49.900;10.774;2023-01-06T11:34:27;8.40;99.90
39503;DHT22;26970;49.900;10.774;2023-01-06T11:36:56;8.50;99.90
39503;DHT22;26970;49.900;10.774;2023-01-06T11:39:29;8.60;99.90
39503;DHT22;26970;49.900;10.774;2023-01-06T11:42:01;8.60;99.90
39503;DHT22;26970;49.900;10.774;2023-01-06T11:44:37;8.60;99.90
39503;DHT22;26970;49.900;10.774;2023-01-06T11:47:12;8.60;99.90
39503;DHT22;26970;49.900;10.774;2023-01-06T11:49:51;8.60;99.90
39503;DHT22;26970;49.900;10.774;2023-01-06T12:00:51;8.70;99.90
39503;DHT22;26970;49.900;10.774;2023-01-06T12:03:36;8.60;99.90
39503;DHT22;26970;49.900;10.774;2023-01-06T12:13:45;8.60;99.90
39503;DHT22;26970;49.900;10.774;2023-01-06T12:16:17;8.60;99.90
39503;DHT22;26970;49.900;10.774;2023-01-06T12:18:48;8.70;99.90
39503;DHT22;26970;49.900;10.774;2023-01-06T12:21:21;8.60;99.90
39503;DHT22;26970;49.900;10.774;2023-01-06T12:23:52;8.60;99.90
39503;DHT22;26970;49.900;10.774;2023-01-06T12:26:22;8.60;99.90
39503;DHT22;26970;49.900;10.774;2023-01-06T12:28:49;8.60;99.90
39503;DHT22;26970;49.900;10.774;2023-01-06T12:31:52;8.60;99.90
39503;DHT22;26970;49.900;10.774;2023-01-06T12:34:22;8.60;99.90
39503;DHT22;26970;49.900;10.774;2023-01-06T12:40:00;8.60;99.90
39503;DHT22;26970;49.900;10.774;2023-01-06T12:42:49;8.70;99.90
39503;DHT22;26970;49.900;10.774;2023-01-06T12:45:23;8.70;99.90
39503;DHT22;26970;49.900;10.774;2023-01-06T12:47:54;8.70;99.90
39503;DHT22;26970;49.900;10.774;2023-01-06T12:50:37;8.70;99.90
39503;DHT22;26970;49.900;10.774;2023-01-06T12:53:17;8.60;99.90
39503;DHT22;26970;49.900;10.774;2023-01-06T12:58:41;8.60;99.90
39503;DHT22;26970;49.900;10.774;2023-01-06T13:01:20;8.60;99.90
39503;DHT22;26970;49.900;10.774;2023-01-06T13:07:00;8.50;99.90
39503;DHT22;26970;49.900;10.774;2023-01-06T13:10:12;8.50;99.90
39503;DHT22;26970;49.900;10.774;2023-01-06T13:12:59;8.50;99.90
39503;DHT22;26970;49.900;10.774;2023-01-06T13:15:30;8.50;99.90
39503;DHT22;26970;49.900;10.774;2023-01-06T13:18:08;8.50;99.90
39503;DHT22;26970;49.900;10.774;2023-01-06T13:20:45;8.50;99.90
39503;DHT22;26970;49.900;10.774;2023-01-06T13:34:29;8.40;99.90
39503;DHT22;26970;49.900;10.774;2023-01-06T13:39:44;8.40;99.90
39503;DHT22;26970;49.900;10.774;2023-01-06T13:42:18;8.40;99.90
39503;DHT22;26970;49.900;10.774;2023-01-06T13:44:46;8.40;99.90
39503;DHT22;26970;49.900;10.774;2023-01-06T13:47:18;8.30;99.90
39503;DHT22;26970;49.900;10.774;2023-01-06T13:49:46;8.30;99.90
39503;DHT22;26970;49.900;10.774;2023-01-06T13:52:22;8.30;99.90
39503;DHT22;26970;49.900;10.774;2023-01-06T13:59:52;8.40;99.90
39503;DHT22;26970;49.900;10.774;2023-01-06T14:05:03;8.40;99.90
39503;DHT22;26970;49.900;10.774;2023-01-06T14:07:36;8.40;99.90
39503;DHT22;26970;49.900;10.774;2023-01-06T14:12:56;8.40;99.90
39503;DHT22;26970;49.900;10.774;2023-01-06T14:15:27;8.40;99.90
39503;DHT22;26970;49.900;10.774;2023-01-06T14:17:53;8.50;99.90
39503;DHT22;26970;49.900;10.774;2023-01-06T14:20:35;8.40;99.90
39503;DHT22;26970;49.900;10.774;2023-01-06T14:23:19;8.40;99.90
39503;DHT22;26970;49.900;10.774;2023-01-06T14:25:52;8.40;99.90
39503;DHT22;26970;49.900;10.774;2023-01-06T14:30:44;8.40;99.90
39503;DHT22;26970;49.900;10.774;2023-01-06T14:36:02;8.40;99.90
39503;DHT22;26970;49.900;10.774;2023-01-06T14:38:42;8.40;99.90
39503;DHT22;26970;49.900;10.774;2023-01-06T14:41:21;8.40;99.90
39503;DHT22;26970;49.900;10.774;2023-01-06T14:43:53;8.40;99.90
39503;DHT22;26970;49.900;10.774;2023-01-06T14:46:25;8.50;99.90
39503;DHT22;26970;49.900;10.774;2023-01-06T14:48:58;8.50;99.90
39503;DHT22;26970;49.900;10.774;2023-01-06T14:51:24;8.50;99.90
39503;DHT22;26970;49.900;10.774;2023-01-06T14:54:01;8.50;99.90
39503;DHT22;26970;49.900;10.774;2023-01-06T14:56:29;8.40;99.90
39503;DHT22;26970;49.900;10.774;2023-01-06T14:59:09;8.40;99.90
39503;DHT22;26970;49.900;10.774;2023-01-06T15:01:37;8.40;99.90
39503;DHT22;26970;49.900;10.774;2023-01-06T15:04:04;8.40;99.90
39503;DHT22;26970;49.900;10.774;2023-01-06T15:06:32;8.40;99.90
39503;DHT22;26970;49.900;10.774;2023-01-06T15:09:17;8.40;99.90
39503;DHT22;26970;49.900;10.774;2023-01-06T15:11:44;8.40;99.90
39503;DHT22;26970;49.900;10.774;2023-01-06T15:16:49;8.40;99.90
39503;DHT22;26970;49.900;10.774;2023-01-06T15:19:15;8.40;99.90
39503;DHT22;26970;49.900;10.774;2023-01-06T15:21:43;8.40;99.90
39503;DHT22;26970;49.900;10.774;2023-01-06T15:24:21;8.30;99.90
39503;DHT22;26970;49.900;10.774;2023-01-06T15:26:52;8.30;99.90
39503;DHT22;26970;49.900;10.774;2023-01-06T15:29:21;8.30;99.90
39503;DHT22;26970;49.900;10.774;2023-01-06T15:31:49;8.20;99.90
39503;DHT22;26970;49.900;10.774;2023-01-06T15:34:24;8.10;99.90
39503;DHT22;26970;49.900;10.774;2023-01-06T15:36:53;8.10;99.90
39503;DHT22;26970;49.900;10.774;2023-01-06T15:39:30;8.10;99.90
39503;DHT22;26970;49.900;10.774;2023-01-06T15:41:57;8.10;99.90
39503;DHT22;26970;49.900;10.774;2023-01-06T15:44:34;8.10;99.90
39503;DHT22;26970;49.900;10.774;2023-01-06T15:49:47;8.10;99.90
39503;DHT22;26970;49.900;10.774;2023-01-06T15:54:54;8.10;99.90
39503;DHT22;26970;49.900;10.774;2023-01-06T15:57:21;8.10;99.90
39503;DHT22;26970;49.900;10.774;2023-01-06T15:59:55;8.10;99.90
39503;DHT22;26970;49.900;10.774;2023-01-06T16:02:22;8.20;99.90
39503;DHT22;26970;49.900;10.774;2023-01-06T16:04:48;8.10;99.90
39503;DHT22;26970;49.900;10.774;2023-01-06T16:07:22;8.00;99.90
39503;DHT22;26970;49.900;10.774;2023-01-06T16:09:56;8.10;99.90
39503;DHT22;26970;49.900;10.774;2023-01-06T16:12:21;8.10;99.90
39503;DHT22;26970;49.900;10.774;2023-01-06T16:14:47;8.10;99.90
39503;DHT22;26970;49.900;10.774;2023-01-06T16:17:32;8.10;99.90
39503;DHT22;26970;49.900;10.774;2023-01-06T16:20:18;8.10;99.90
39503;DHT22;26970;49.900;10.774;2023-01-06T16:22:49;8.20;99.90
39503;DHT22;26970;49.900;10.774;2023-01-06T16:25:25;8.10;99.90
39503;DHT22;26970;49.900;10.774;2023-01-06T16:27:56;8.10;99.90
39503;DHT22;26970;49.900;10.774;2023-01-06T16:30:32;8.20;99.90
39503;DHT22;26970;49.900;10.774;2023-01-06T16:33:01;8.20;99.90
39503;DHT22;26970;49.900;10.774;2023-01-06T16:35:33;8.20;99.90
39503;DHT22;26970;49.900;10.774;2023-01-06T16:37:59;8.20;99.90
39503;DHT22;26970;49.900;10.774;2023-01-06T16:40:26;8.20;99.90
39503;DHT22;26970;49.900;10.774;2023-01-06T16:43:00;8.20;99.90
39503;DHT22;26970;49.900;10.774;2023-01-06T16:45:37;8.20;99.90
39503;DHT22;26970;49.900;10.774;2023-01-06T16:48:05;8.20;99.90
39503;DHT22;26970;49.900;10.774;2023-01-06T16:50:48;8.20;99.90
39503;DHT22;26970;49.900;10.774;2023-01-06T16:53:20;8.20;99.90
39503;DHT22;26970;49.900;10.774;2023-01-06T16:55:51;8.20;99.90
39503;DHT22;26970;49.900;10.774;2023-01-06T16:58:26;8.20;99.90
39503;DHT22;26970;49.900;10.774;2023-01-06T17:00:54;8.20;99.90
39503;DHT22;26970;49.900;10.774;2023-01-06T17:03:27;8.10;99.90
39503;DHT22;26970;49.900;10.774;2023-01-06T17:05:53;8.20;99.90
39503;DHT22;26970;49.900;10.774;2023-01-06T17:08:26;8.20;99.90
39503;DHT22;26970;49.900;10.774;2023-01-06T17:10:52;8.20;99.90
39503;DHT22;26970;49.900;10.774;2023-01-06T17:13:18;8.20;99.90
39503;DHT22;26970;49.900;10.774;2023-01-06T17:16:13;8.20;99.90
39503;DHT22;26970;49.900;10.774;2023-01-06T17:19:02;8.20;99.90
39503;DHT22;26970;49.900;10.774;2023-01-06T17:21:37;8.20;99.90
39503;DHT22;26970;49.900;10.774;2023-01-06T17:24:17;8.20;99.90
39503;DHT22;26970;49.900;10.774;2023-01-06T17:29:43;8.20;99.90
39503;DHT22;26970;49.900;10.774;2023-01-06T17:32:32;8.20;99.90
39503;DHT22;26970;49.900;10.774;2023-01-06T17:35:00;8.20;99.90
39503;DHT22;26970;49.900;10.774;2023-01-06T17:37:27;8.20;99.90
39503;DHT22;26970;49.900;10.774;2023-01-06T17:39:54;8.20;99.90
39503;DHT22;26970;49.900;10.774;2023-01-06T17:42:29;8.20;99.90
39503;DHT22;26970;49.900;10.774;2023-01-06T17:44:58;8.20;99.90
39503;DHT22;26970;49.900;10.774;2023-01-06T17:47:29;8.20;99.90